Norwegian Star — C6FR3 — position and weather

sailwx.info

Track history (hours):
 
Tides and Currents Weather Stations Pressure Air Temp Water Temp Dewpoint Dewpoint Depression Visibility Wind Speed Wind Dir Waves Ship Positions

Norwegian Star

Operator: Norwegian Cruise Line

Last reported at 2014-Aug-21 21:32 UTC. Time now 2014-Aug-21 22:05 UTC.
Position N 59°57' E 030°11'.

Type: Ship. MMSI: 311082000.

Date/timePositionNaut miles runAvg speedWind from/ knotsBaromVisibWave heightAir tempDewpointWater temp
2014-Aug-21 21:32N 59°57' E 030°11'0 0.0
2014-Aug-21 20:28N 59°57' E 030°11'0 0.0
2014-Aug-21 19:31N 59°57' E 030°11'0 0.0
2014-Aug-21 18:31N 59°57' E 030°11'0 0.0
2014-Aug-21 17:33N 59°57' E 030°11'0 0.0
2014-Aug-21 16:33N 59°57' E 030°11'0 0.0
2014-Aug-21 15:32N 59°57' E 030°11'0 0.0
2014-Aug-21 14:32N 59°57' E 030°11'0 0.0
2014-Aug-21 13:31N 59°57' E 030°11'0 0.0
2014-Aug-21 12:31N 59°57' E 030°11'0 0.0
2014-Aug-21 11:25N 59°57' E 030°11'0 0.0
2014-Aug-21 10:33N 59°57' E 030°11'0 0.0
2014-Aug-21 09:33N 59°57' E 030°11'0 0.0
2014-Aug-21 08:32N 59°57' E 030°11'0 0.0
2014-Aug-21 07:32N 59°57' E 030°11'0 0.0
2014-Aug-21 06:31N 59°57' E 030°11'0 0.0
2014-Aug-21 05:31N 59°57' E 030°11'0 0.0
2014-Aug-21 04:31N 59°57' E 030°11'0 0.0
2014-Aug-21 03:33N 59°57' E 030°11'5 4.6
2014-Aug-21 02:34N 59°56' E 030°02'9613.5
2014-Aug-20 19:27N 59°59' E 026°50'715.5
2014-Aug-20 19:00N 60°00' E 026°36'918.9 230 / 351001.0 2.515.0 18.0
2014-Aug-20 18:31N 59°56' E 026°20'226 9.2
2014-Aug-19 18:00N 57°54' E 020°12'17817.0 230 / 301002.0 3.017.0 18.0
2014-Aug-19 07:32N 55°52' E 016°15'2116.8
2014-Aug-19 06:17N 55°41' E 015°44'1216.8
2014-Aug-19 05:34N 55°35' E 015°25'1716.9
2014-Aug-19 04:34N 55°28' E 014°58'1716.5
2014-Aug-19 03:34N 55°19' E 014°33'1616.4
2014-Aug-19 02:33N 55°06' E 014°15'1616.5
2014-Aug-19 01:33N 54°58' E 013°50'1717.1
2014-Aug-19 00:34N 54°53' E 013°22'1716.8
2014-Aug-18 23:34N 54°47' E 012°54'1616.3
2014-Aug-18 22:34N 54°40' E 012°28'1615.7
2014-Aug-18 21:33N 54°27' E 012°13'1414.4
2014-Aug-18 20:33N 54°14' E 012°04'4 1.2
2014-Aug-18 17:33N 54°10' E 012°06'0 0.0
2014-Aug-18 16:33N 54°10' E 012°06'0 0.0
2014-Aug-18 15:32N 54°10' E 012°06'0 0.0
2014-Aug-18 14:29N 54°10' E 012°06'0 0.0
2014-Aug-18 13:28N 54°10' E 012°06'0 0.0
2014-Aug-18 12:13N 54°10' E 012°06'0 0.0
2014-Aug-18 11:27N 54°10' E 012°06'0 0.0
2014-Aug-18 10:15N 54°10' E 012°06'2 6.6
2014-Aug-18 10:00N 54°12' E 012°06'2 3.4 230 / 331002.0 0.517.2 19.0
2014-Aug-18 09:30N 54°10' E 012°06'0 0.0
2014-Aug-18 08:32N 54°10' E 012°06'0 0.0
2014-Aug-18 07:14N 54°10' E 012°06'0 0.0
2014-Aug-18 05:31N 54°10' E 012°06'1 1.3
2014-Aug-18 04:33N 54°12' E 012°05'1212.0
2014-Aug-18 03:33N 54°21' E 011°52'10811.6
2014-Aug-17 18:17N 56°09' E 011°54'1318.3
2014-Aug-17 17:33N 56°11' E 012°17'1817.5
2014-Aug-17 16:33N 56°00' E 012°41'1515.1
2014-Aug-17 15:33N 55°45' E 012°41'3 2.6
2014-Aug-17 14:31N 55°43' E 012°37'0 0.0
2014-Aug-17 13:33N 55°43' E 012°37'0 0.0
2014-Aug-17 12:33N 55°43' E 012°37'0 0.0
2014-Aug-17 11:33N 55°43' E 012°37'0 0.0
2014-Aug-17 10:32N 55°43' E 012°37'0 0.0
2014-Aug-17 09:32N 55°43' E 012°37'0 0.0
2014-Aug-17 08:31N 55°43' E 012°37'0 0.0
2014-Aug-17 07:31N 55°43' E 012°37'0 0.0
2014-Aug-17 06:33N 55°43' E 012°37'0 0.0
2014-Aug-17 05:32N 55°43' E 012°37'0 0.1
2014-Aug-17 04:33N 55°43' E 012°38'10 9.6
2014-Aug-17 03:34N 55°52' E 012°40'1515.3
2014-Aug-17 02:34N 56°07' E 012°30'2019.6
2014-Aug-17 01:33N 56°09' E 011°55'9813.9
2014-Aug-16 18:30N 54°32' E 011°25'1717.0
2014-Aug-16 17:30N 54°27' E 011°52'1414.7
2014-Aug-16 16:33N 54°33' E 012°14'1817.5
2014-Aug-16 15:32N 54°44' E 012°37'1818.7
2014-Aug-16 14:34N 54°52' E 013°06'2019.6
2014-Aug-16 13:34N 54°58' E 013°39'2119.3
2014-Aug-16 12:29N 55°08' E 014°10'1819.8
2014-Aug-16 11:33N 55°22' E 014°31'1919.6
2014-Aug-16 10:33N 55°33' E 014°59'2019.9
2014-Aug-16 09:34N 55°43' E 015°31'2020.0
2014-Aug-16 08:32N 55°53' E 016°02'4019.2
2014-Aug-16 06:26N 56°21' E 016°55'1820.5
2014-Aug-16 05:33N 56°37' E 017°08'2120.7
2014-Aug-16 04:33N 56°56' E 017°20'2020.4
2014-Aug-16 03:34N 57°16' E 017°32'14819.6
2014-Aug-15 20:00N 59°24' E 019°54'91 3.6 230 / 181002.0 1.018.015.016.0
2014-Aug-14 18:32N 59°34' E 022°52'1018.7
2014-Aug-14 18:00N 59°36' E 023°12'1023.1 220 / 71001.0 1.016.014.019.0
2014-Aug-14 17:33N 59°40' E 023°30'4018.7
2014-Aug-14 15:27N 59°55' E 024°43'1112.2
2014-Aug-14 14:33N 60°05' E 024°53'4 4.4
2014-Aug-14 13:33N 60°09' E 024°55'0 0.0
2014-Aug-14 12:32N 60°09' E 024°55'0 0.0
2014-Aug-14 11:32N 60°09' E 024°55'0 0.0
2014-Aug-14 10:31N 60°09' E 024°55'0 0.0
2014-Aug-14 09:31N 60°09' E 024°55'3 5.7
2014-Aug-14 09:00N 60°06' E 024°54'3 6.8 090 / 101005.0 0.518.015.015.0
2014-Aug-14 08:33N 60°09' E 024°55'0 0.0
2014-Aug-14 07:33N 60°09' E 024°55'0 0.0
2014-Aug-14 06:33N 60°09' E 024°55'0 0.0
2014-Aug-14 05:32N 60°09' E 024°55'0 0.0
2014-Aug-14 04:32N 60°09' E 024°55'0 0.0
2014-Aug-14 03:33N 60°09' E 024°55'8 7.5
2014-Aug-14 02:33N 60°01' E 024°55'3014.4
2014-Aug-14 00:31N 59°57' E 025°54'1516.2
2014-Aug-13 23:34N 60°01' E 026°24'1715.8
2014-Aug-13 22:29N 60°00' E 026°57'8514.3
2014-Aug-13 16:31N 59°58' E 029°48'1010.3
2014-Aug-13 15:33N 59°57' E 030°07'2 0.3
2014-Aug-13 09:23N 59°57' E 030°11'3 0.9
2014-Aug-13 06:00N 60°00' E 030°12'0 0.0 270 / 141005.0 0.520.012.023.0
2014-Aug-13 04:00N 60°00' E 030°12'3 0.1 320 / 111005.0 5.4 20.0 23.0
2014-Aug-12 03:33N 59°57' E 030°11'6 6.2
2014-Aug-12 02:31N 59°56' E 029°59'  
Track history (hours):
 
Tides and Currents Weather Stations Pressure Air Temp Water Temp Dewpoint Dewpoint Depression Visibility Wind Speed Wind Dir Waves Ship Positions

Norwegian Star

Operator: Norwegian Cruise Line

Last reported at 2014-Aug-21 21:32 UTC. Time now 2014-Aug-21 22:05 UTC.
Position N 59°57' E 030°11'.

Type: Ship. MMSI: 311082000.

Date/timePositionNaut miles runAvg speedWind from/ knotsBaromVisibWave heightAir tempDewpointWater temp
2014-Aug-21 21:32N 59°57' E 030°11'0 0.0
2014-Aug-21 20:28N 59°57' E 030°11'0 0.0
2014-Aug-21 19:31N 59°57' E 030°11'0 0.0
2014-Aug-21 18:31N 59°57' E 030°11'0 0.0
2014-Aug-21 17:33N 59°57' E 030°11'0 0.0
2014-Aug-21 16:33N 59°57' E 030°11'0 0.0
2014-Aug-21 15:32N 59°57' E 030°11'0 0.0
2014-Aug-21 14:32N 59°57' E 030°11'0 0.0
2014-Aug-21 13:31N 59°57' E 030°11'0 0.0
2014-Aug-21 12:31N 59°57' E 030°11'0 0.0
2014-Aug-21 11:25N 59°57' E 030°11'0 0.0
2014-Aug-21 10:33N 59°57' E 030°11'0 0.0
2014-Aug-21 09:33N 59°57' E 030°11'0 0.0
2014-Aug-21 08:32N 59°57' E 030°11'0 0.0
2014-Aug-21 07:32N 59°57' E 030°11'0 0.0
2014-Aug-21 06:31N 59°57' E 030°11'0 0.0
2014-Aug-21 05:31N 59°57' E 030°11'0 0.0
2014-Aug-21 04:31N 59°57' E 030°11'0 0.0
2014-Aug-21 03:33N 59°57' E 030°11'5 4.6
2014-Aug-21 02:34N 59°56' E 030°02'9613.5
2014-Aug-20 19:27N 59°59' E 026°50'715.5
2014-Aug-20 19:00N 60°00' E 026°36'918.9 230 / 351001.0 2.515.0 18.0
2014-Aug-20 18:31N 59°56' E 026°20'226 9.2
2014-Aug-19 18:00N 57°54' E 020°12'17817.0 230 / 301002.0 3.017.0 18.0
2014-Aug-19 07:32N 55°52' E 016°15'2116.8
2014-Aug-19 06:17N 55°41' E 015°44'1216.8
2014-Aug-19 05:34N 55°35' E 015°25'1716.9
2014-Aug-19 04:34N 55°28' E 014°58'1716.5
2014-Aug-19 03:34N 55°19' E 014°33'1616.4
2014-Aug-19 02:33N 55°06' E 014°15'1616.5
2014-Aug-19 01:33N 54°58' E 013°50'1717.1
2014-Aug-19 00:34N 54°53' E 013°22'1716.8
2014-Aug-18 23:34N 54°47' E 012°54'1616.3
2014-Aug-18 22:34N 54°40' E 012°28'1615.7
2014-Aug-18 21:33N 54°27' E 012°13'1414.4
2014-Aug-18 20:33N 54°14' E 012°04'4 1.2
2014-Aug-18 17:33N 54°10' E 012°06'0 0.0
2014-Aug-18 16:33N 54°10' E 012°06'0 0.0
2014-Aug-18 15:32N 54°10' E 012°06'0 0.0
2014-Aug-18 14:29N 54°10' E 012°06'0 0.0
2014-Aug-18 13:28N 54°10' E 012°06'0 0.0
2014-Aug-18 12:13N 54°10' E 012°06'0 0.0
2014-Aug-18 11:27N 54°10' E 012°06'0 0.0
2014-Aug-18 10:15N 54°10' E 012°06'2 6.6
2014-Aug-18 10:00N 54°12' E 012°06'2 3.4 230 / 331002.0 0.517.2 19.0
2014-Aug-18 09:30N 54°10' E 012°06'0 0.0
2014-Aug-18 08:32N 54°10' E 012°06'0 0.0
2014-Aug-18 07:14N 54°10' E 012°06'0 0.0
2014-Aug-18 05:31N 54°10' E 012°06'1 1.3
2014-Aug-18 04:33N 54°12' E 012°05'1212.0
2014-Aug-18 03:33N 54°21' E 011°52'10811.6
2014-Aug-17 18:17N 56°09' E 011°54'1318.3
2014-Aug-17 17:33N 56°11' E 012°17'1817.5
2014-Aug-17 16:33N 56°00' E 012°41'1515.1
2014-Aug-17 15:33N 55°45' E 012°41'3 2.6
2014-Aug-17 14:31N 55°43' E 012°37'0 0.0
2014-Aug-17 13:33N 55°43' E 012°37'0 0.0
2014-Aug-17 12:33N 55°43' E 012°37'0 0.0
2014-Aug-17 11:33N 55°43' E 012°37'0 0.0
2014-Aug-17 10:32N 55°43' E 012°37'0 0.0
2014-Aug-17 09:32N 55°43' E 012°37'0 0.0
2014-Aug-17 08:31N 55°43' E 012°37'0 0.0
2014-Aug-17 07:31N 55°43' E 012°37'0 0.0
2014-Aug-17 06:33N 55°43' E 012°37'0 0.0
2014-Aug-17 05:32N 55°43' E 012°37'0 0.1
2014-Aug-17 04:33N 55°43' E 012°38'10 9.6
2014-Aug-17 03:34N 55°52' E 012°40'1515.3
2014-Aug-17 02:34N 56°07' E 012°30'2019.6
2014-Aug-17 01:33N 56°09' E 011°55'9813.9
2014-Aug-16 18:30N 54°32' E 011°25'1717.0
2014-Aug-16 17:30N 54°27' E 011°52'1414.7
2014-Aug-16 16:33N 54°33' E 012°14'1817.5
2014-Aug-16 15:32N 54°44' E 012°37'1818.7
2014-Aug-16 14:34N 54°52' E 013°06'2019.6
2014-Aug-16 13:34N 54°58' E 013°39'2119.3
2014-Aug-16 12:29N 55°08' E 014°10'1819.8
2014-Aug-16 11:33N 55°22' E 014°31'1919.6
2014-Aug-16 10:33N 55°33' E 014°59'2019.9
2014-Aug-16 09:34N 55°43' E 015°31'2020.0
2014-Aug-16 08:32N 55°53' E 016°02'4019.2
2014-Aug-16 06:26N 56°21' E 016°55'1820.5
2014-Aug-16 05:33N 56°37' E 017°08'2120.7
2014-Aug-16 04:33N 56°56' E 017°20'2020.4
2014-Aug-16 03:34N 57°16' E 017°32'14819.6
2014-Aug-15 20:00N 59°24' E 019°54'91 3.6 230 / 181002.0 1.018.015.016.0
2014-Aug-14 18:32N 59°34' E 022°52'1018.7
2014-Aug-14 18:00N 59°36' E 023°12'1023.1 220 / 71001.0 1.016.014.019.0
2014-Aug-14 17:33N 59°40' E 023°30'4018.7
2014-Aug-14 15:27N 59°55' E 024°43'1112.2
2014-Aug-14 14:33N 60°05' E 024°53'4 4.4
2014-Aug-14 13:33N 60°09' E 024°55'0 0.0
2014-Aug-14 12:32N 60°09' E 024°55'0 0.0
2014-Aug-14 11:32N 60°09' E 024°55'0 0.0
2014-Aug-14 10:31N 60°09' E 024°55'0 0.0
2014-Aug-14 09:31N 60°09' E 024°55'3 5.7
2014-Aug-14 09:00N 60°06' E 024°54'3 6.8 090 / 101005.0 0.518.015.015.0
2014-Aug-14 08:33N 60°09' E 024°55'0 0.0
2014-Aug-14 07:33N 60°09' E 024°55'0 0.0
2014-Aug-14 06:33N 60°09' E 024°55'0 0.0
2014-Aug-14 05:32N 60°09' E 024°55'0 0.0
2014-Aug-14 04:32N 60°09' E 024°55'0 0.0
2014-Aug-14 03:33N 60°09' E 024°55'8 7.5
2014-Aug-14 02:33N 60°01' E 024°55'3014.4
2014-Aug-14 00:31N 59°57' E 025°54'1516.2
2014-Aug-13 23:34N 60°01' E 026°24'1715.8
2014-Aug-13 22:29N 60°00' E 026°57'8514.3
2014-Aug-13 16:31N 59°58' E 029°48'1010.3
2014-Aug-13 15:33N 59°57' E 030°07'2 0.3
2014-Aug-13 09:23N 59°57' E 030°11'3 0.9
2014-Aug-13 06:00N 60°00' E 030°12'0 0.0 270 / 141005.0 0.520.012.023.0
2014-Aug-13 04:00N 60°00' E 030°12'3 0.1 320 / 111005.0 5.4 20.0 23.0
2014-Aug-12 03:33N 59°57' E 030°11'6 6.2
2014-Aug-12 02:31N 59°56' E 029°59'  

Dump ship's entire track history